createdAt,value
2022-10-15T00:03:10.568Z,12.77
2022-10-15T00:07:59.987Z,12.73
2022-10-15T00:12:52.104Z,12.69
2022-10-15T00:17:42.728Z,12.67
2022-10-15T00:22:32.477Z,12.62
2022-10-15T00:27:21.935Z,12.60
2022-10-15T00:32:17.423Z,12.59
2022-10-15T00:37:06.884Z,12.59
2022-10-15T00:41:56.378Z,12.58
2022-10-15T00:46:51.090Z,12.57
2022-10-15T00:51:50.722Z,12.59
2022-10-15T00:56:40.712Z,12.59
2022-10-15T01:01:30.277Z,12.60
2022-10-15T01:06:20.233Z,12.60
2022-10-15T01:11:20.383Z,12.60
2022-10-15T01:21:09.730Z,12.59
2022-10-15T01:26:09.258Z,12.59
2022-10-15T01:31:02.988Z,12.57
2022-10-15T01:35:56.758Z,12.56
2022-10-15T01:40:50.372Z,12.51
2022-10-15T01:45:43.243Z,12.55
2022-10-15T01:50:54.956Z,12.56
2022-10-15T01:55:45.614Z,12.55
2022-10-15T02:00:37.588Z,12.56
2022-10-15T02:05:30.574Z,12.56
2022-10-15T02:10:26.089Z,12.57
2022-10-15T02:15:19.209Z,12.58
2022-10-15T02:20:12.588Z,12.59
2022-10-15T02:25:07.055Z,12.61
2022-10-15T02:30:00.444Z,12.44
2022-10-15T02:34:52.259Z,12.61
2022-10-15T02:39:41.768Z,12.47
2022-10-15T02:44:31.803Z,12.61
2022-10-15T02:49:23.802Z,12.57
2022-10-15T02:54:14.086Z,12.53
2022-10-15T02:59:06.014Z,12.49
2022-10-15T03:03:56.219Z,12.44
2022-10-15T03:08:48.480Z,12.38
2022-10-15T03:13:38.701Z,12.33
2022-10-15T03:18:30.995Z,12.30
2022-10-15T03:23:20.563Z,12.24
2022-10-15T03:28:12.754Z,12.21
2022-10-15T03:33:04.862Z,12.20
2022-10-15T03:37:54.824Z,12.16
2022-10-15T03:42:46.759Z,12.14
2022-10-15T03:47:39.237Z,12.11
2022-10-15T03:52:33.002Z,12.07
2022-10-15T03:57:22.768Z,12.04
2022-10-15T04:02:17.560Z,11.99
2022-10-15T04:07:11.969Z,11.96
2022-10-15T04:12:01.820Z,11.95
2022-10-15T04:16:51.273Z,11.94
2022-10-15T04:21:46.711Z,11.92
2022-10-15T04:26:52.790Z,11.92
2022-10-15T04:31:45.265Z,11.89
2022-10-15T04:36:35.177Z,11.86
2022-10-15T04:41:53.663Z,11.83
2022-10-15T04:46:52.208Z,11.84
2022-10-15T04:52:15.157Z,11.85
2022-10-15T04:57:15.554Z,11.88
2022-10-15T05:02:05.119Z,11.91
2022-10-15T05:06:55.007Z,11.92
2022-10-15T05:11:47.049Z,11.90
2022-10-15T05:16:39.608Z,11.91
2022-10-15T05:21:31.271Z,11.89
2022-10-15T05:26:27.865Z,11.88
2022-10-15T05:31:19.962Z,11.88
2022-10-15T05:36:17.337Z,11.92
2022-10-15T05:41:08.744Z,11.94
2022-10-15T05:46:01.711Z,11.97
2022-10-15T05:50:51.230Z,11.99
2022-10-15T05:55:50.574Z,12.00
2022-10-15T06:00:42.268Z,12.00
2022-10-15T06:05:37.734Z,12.00
2022-10-15T06:10:31.333Z,12.00
2022-10-15T06:15:23.430Z,12.00
2022-10-15T06:20:13.893Z,12.01
2022-10-15T06:25:03.541Z,12.02
2022-10-15T06:29:53.100Z,12.05
2022-10-15T06:34:45.300Z,12.10
2022-10-15T06:39:35.863Z,12.14
2022-10-15T06:44:25.396Z,12.18
2022-10-15T06:49:14.919Z,12.25
2022-10-15T06:54:08.186Z,12.28
2022-10-15T06:58:59.837Z,12.32
2022-10-15T07:03:51.949Z,12.38
2022-10-15T07:08:44.992Z,12.41
2022-10-15T07:13:37.049Z,12.46
2022-10-15T07:18:26.910Z,12.47
2022-10-15T07:23:16.735Z,12.54
2022-10-15T07:28:06.863Z,12.58
2022-10-15T07:32:59.390Z,12.66
2022-10-15T07:37:50.714Z,12.74
2022-10-15T07:42:42.095Z,12.80
2022-10-15T07:47:31.887Z,12.92
2022-10-15T07:52:24.542Z,12.99
2022-10-15T07:57:14.448Z,13.04
2022-10-15T08:02:06.121Z,13.08
2022-10-15T08:06:56.857Z,13.12
2022-10-15T08:11:49.047Z,13.20
2022-10-15T08:16:40.255Z,13.25
2022-10-15T08:21:31.010Z,13.30
2022-10-15T08:26:20.481Z,13.35
2022-10-15T08:31:12.541Z,13.40
2022-10-15T08:36:01.916Z,13.46
2022-10-15T08:40:51.803Z,13.54
2022-10-15T08:45:45.188Z,13.58
2022-10-15T08:50:48.291Z,13.67
2022-10-15T08:55:42.470Z,13.81
2022-10-15T09:00:33.691Z,13.92
2022-10-15T09:05:29.060Z,14.01
2022-10-15T09:10:30.653Z,14.04
2022-10-15T09:15:25.403Z,14.04
2022-10-15T09:20:21.202Z,13.99
2022-10-15T09:25:32.136Z,13.94
2022-10-15T09:30:30.258Z,13.92
2022-10-15T09:35:21.643Z,13.88
2022-10-15T09:40:18.958Z,13.87
2022-10-15T09:45:13.428Z,13.88
2022-10-15T09:50:03.801Z,13.86
2022-10-15T09:54:57.744Z,13.83
2022-10-15T09:59:55.294Z,13.83
2022-10-15T10:04:47.455Z,13.79
2022-10-15T10:09:39.129Z,13.77
2022-10-15T10:14:30.840Z,13.77
2022-10-15T10:19:20.462Z,13.79
2022-10-15T10:24:30.325Z,13.84
2022-10-15T10:29:33.620Z,13.85
2022-10-15T10:34:28.675Z,13.91
2022-10-15T10:39:24.300Z,13.94
2022-10-15T10:44:22.235Z,14.00
2022-10-15T10:49:11.992Z,14.07
2022-10-15T10:54:03.364Z,14.10
2022-10-15T10:59:02.413Z,14.18
2022-10-15T11:03:54.712Z,14.21
2022-10-15T11:08:48.988Z,14.28
2022-10-15T11:13:47.609Z,14.32
2022-10-15T11:18:44.411Z,14.41
2022-10-15T11:23:43.689Z,14.45
2022-10-15T11:28:44.858Z,14.57
2022-10-15T11:33:46.609Z,14.62
2022-10-15T11:38:42.830Z,14.65
2022-10-15T11:43:40.254Z,14.70
2022-10-15T11:48:37.552Z,14.76
2022-10-15T11:53:33.410Z,14.92
2022-10-15T11:58:31.455Z,15.03
2022-10-15T12:03:22.302Z,15.13
2022-10-15T12:08:14.863Z,15.23
2022-10-15T12:13:09.223Z,15.26
2022-10-15T12:18:04.567Z,15.32
2022-10-15T12:22:58.133Z,15.38
2022-10-15T12:27:47.463Z,15.43
2022-10-15T12:32:40.427Z,15.50
2022-10-15T12:37:36.725Z,15.52
2022-10-15T12:42:29.735Z,15.50
2022-10-15T12:47:39.968Z,15.50
2022-10-15T12:52:45.087Z,15.44
2022-10-15T12:57:53.404Z,15.38
2022-10-15T13:02:49.018Z,15.28
2022-10-15T13:07:43.965Z,15.19
2022-10-15T13:12:35.755Z,15.13
2022-10-15T13:17:26.470Z,15.16
2022-10-15T13:22:26.711Z,15.26
2022-10-15T13:27:18.032Z,15.32
2022-10-15T13:32:16.711Z,15.40
2022-10-15T13:37:08.045Z,15.48
2022-10-15T13:42:12.703Z,15.58
2022-10-15T13:47:04.094Z,15.63
2022-10-15T13:51:56.502Z,15.65
2022-10-15T13:56:50.263Z,15.68
2022-10-15T14:01:49.445Z,15.66
2022-10-15T14:06:42.273Z,15.61
2022-10-15T14:11:33.497Z,15.54
2022-10-15T14:16:25.405Z,15.52
2022-10-15T14:21:18.698Z,15.57
2022-10-15T14:26:08.629Z,15.58
2022-10-15T14:30:58.375Z,15.55
2022-10-15T14:35:48.600Z,15.50
2022-10-15T14:40:41.887Z,15.49
2022-10-15T14:45:33.293Z,15.46
2022-10-15T14:50:23.553Z,15.49
2022-10-15T14:55:18.274Z,15.49
2022-10-15T15:00:18.520Z,15.53
2022-10-15T15:05:21.120Z,15.54
2022-10-15T15:10:14.822Z,15.54
2022-10-15T15:15:05.363Z,15.50
2022-10-15T15:20:01.890Z,15.47
2022-10-15T15:24:51.825Z,15.44
2022-10-15T15:29:43.657Z,15.38
2022-10-15T15:34:35.209Z,15.28
2022-10-15T15:39:28.802Z,15.22
2022-10-15T15:44:19.336Z,15.18
2022-10-15T15:49:09.114Z,15.13
2022-10-15T15:54:04.834Z,15.12
2022-10-15T15:58:58.707Z,15.12
2022-10-15T16:03:48.761Z,15.10
2022-10-15T16:08:39.862Z,15.05
2022-10-15T16:13:29.293Z,15.01
2022-10-15T16:18:21.274Z,14.94
2022-10-15T16:23:10.612Z,14.88
2022-10-15T16:28:01.963Z,14.80
2022-10-15T16:32:51.618Z,14.72
2022-10-15T16:37:43.606Z,14.64
2022-10-15T16:42:33.024Z,14.55
2022-10-15T16:47:23.086Z,14.46
2022-10-15T16:52:13.541Z,14.41
2022-10-15T16:57:05.635Z,14.33
2022-10-15T17:01:55.972Z,14.27
2022-10-15T17:06:45.902Z,14.20
2022-10-15T17:11:36.266Z,14.12
2022-10-15T17:16:29.757Z,14.06
2022-10-15T17:21:20.690Z,13.98
2022-10-15T17:26:11.876Z,13.92
2022-10-15T17:31:04.672Z,13.85
2022-10-15T17:35:56.627Z,13.79
2022-10-15T17:40:46.070Z,13.74
2022-10-15T17:45:35.478Z,13.71
2022-10-15T17:50:24.920Z,13.64
2022-10-15T17:55:17.185Z,13.59
2022-10-15T18:00:08.443Z,13.61
2022-10-15T18:05:01.860Z,13.65
2022-10-15T18:09:51.336Z,13.75
2022-10-15T18:14:43.387Z,13.81
2022-10-15T18:19:32.957Z,13.88
2022-10-15T18:24:23.558Z,13.93
2022-10-15T18:29:13.250Z,13.99
2022-10-15T18:34:06.319Z,14.02
2022-10-15T18:38:56.281Z,14.04
2022-10-15T18:43:46.215Z,14.05
2022-10-15T18:48:36.860Z,14.07
2022-10-15T18:53:29.018Z,14.11
2022-10-15T18:58:20.079Z,14.15
2022-10-15T19:03:09.651Z,14.19
2022-10-15T19:07:59.059Z,14.25
2022-10-15T19:12:51.540Z,14.31
2022-10-15T19:17:41.035Z,14.34
2022-10-15T19:22:31.048Z,14.36
2022-10-15T19:27:20.482Z,14.37
2022-10-15T19:32:12.472Z,14.36
2022-10-15T19:37:01.893Z,14.34
2022-10-15T19:41:53.497Z,14.33
2022-10-15T19:46:43.478Z,14.31
2022-10-15T19:51:35.603Z,14.27
2022-10-15T19:56:26.387Z,14.22
2022-10-15T20:01:15.883Z,14.19
2022-10-15T20:06:05.510Z,14.17
2022-10-15T20:10:57.898Z,14.14
2022-10-15T20:15:48.144Z,14.14
2022-10-15T20:20:37.683Z,14.12
2022-10-15T20:25:27.120Z,14.13
2022-10-15T20:30:19.152Z,14.13
2022-10-15T20:35:09.062Z,14.15
2022-10-15T20:39:59.909Z,14.15
2022-10-15T20:44:50.235Z,14.15
2022-10-15T20:49:45.109Z,14.15
2022-10-15T20:54:35.006Z,14.12
2022-10-15T20:59:27.899Z,14.09
2022-10-15T21:04:19.679Z,14.06
2022-10-15T21:09:11.929Z,14.06
2022-10-15T21:14:01.810Z,14.02
2022-10-15T21:18:51.186Z,14.00
2022-10-15T21:23:41.482Z,14.01
2022-10-15T21:28:33.640Z,14.00
2022-10-15T21:33:23.149Z,14.01
2022-10-15T21:38:12.522Z,14.02
2022-10-15T21:43:01.924Z,14.06
2022-10-15T21:47:53.947Z,14.08
2022-10-15T21:52:43.832Z,14.13
2022-10-15T21:57:33.775Z,14.13
2022-10-15T22:02:23.491Z,14.12
2022-10-15T22:07:15.584Z,14.08
2022-10-15T22:12:05.559Z,14.05
2022-10-15T22:16:55.322Z,14.00
2022-10-15T22:21:45.203Z,13.93
2022-10-15T22:26:38.863Z,13.87
2022-10-15T22:31:28.948Z,13.80
2022-10-15T22:36:19.504Z,13.73
2022-10-15T22:41:09.956Z,13.63
2022-10-15T22:46:04.382Z,13.54
2022-10-15T22:50:57.876Z,13.48
2022-10-15T22:55:56.975Z,13.39
2022-10-15T23:00:46.456Z,13.32
2022-10-15T23:05:38.775Z,13.28
2022-10-15T23:10:28.154Z,13.23
2022-10-15T23:15:17.926Z,13.19
2022-10-15T23:20:07.853Z,13.15
2022-10-15T23:24:59.874Z,13.11
2022-10-15T23:29:56.851Z,13.07
2022-10-15T23:34:56.996Z,13.06
2022-10-15T23:39:46.668Z,13.05
2022-10-15T23:49:28.065Z,13.05
2022-10-15T23:54:18.532Z,13.02
2022-10-15T23:59:08.298Z,13.05
